<?xml version="1.0" encoding="UTF-8" standalone="no" ?>
<gpx xmlns="http://www.topografix.com/GPX/1/1" xmlns:xsi="http://www.w3.org/2001/XMLSchema-instance" xsi:schemaLocation="http://www.topografix.com/GPX/1/1 http://www.topografix.com/GPX/1/1/gpx.xsd" version="1.1" creator="VisuGPX - https://www.visugpx.com">
  <metadata>
    <name>OMS CHENOVE Marche du vendredi 28 septembre 2012</name>
    <desc><![CDATA[lac KIR - Talant - Fontaine - Plambières]]></desc>
  </metadata>
  <trk>
    <name><![CDATA[OMS CHENOVE Marche du vendredi 28 septembre 2012_1]]></name>
    <trkseg>
      <trkpt lat="47.32987" lon="4.99795">
        <ele>222.368</ele>
        <time>2012-09-28T08:24:36Z</time>
      </trkpt>
      <trkpt lat="47.32988" lon="4.99807">
        <ele>237.514</ele>
        <time>2012-09-28T08:24:47Z</time>
      </trkpt>
      <trkpt lat="47.32983" lon="4.99818">
        <ele>250.223</ele>
        <time>2012-09-28T08:24:58Z</time>
      </trkpt>
      <trkpt lat="47.3298" lon="4.99835">
        <ele>255.973</ele>
        <time>2012-09-28T08:25:09Z</time>
      </trkpt>
      <trkpt lat="47.32978" lon="4.99853">
        <ele>259.105</ele>
        <time>2012-09-28T08:25:20Z</time>
      </trkpt>
      <trkpt lat="47.32975" lon="4.99873">
        <ele>269.837</ele>
        <time>2012-09-28T08:25:31Z</time>
      </trkpt>
      <trkpt lat="47.32967" lon="4.9989">
        <ele>274.24</ele>
        <time>2012-09-28T08:25:42Z</time>
      </trkpt>
      <trkpt lat="47.32968" lon="4.99892">
        <ele>272.285</ele>
        <time>2012-09-28T08:25:53Z</time>
      </trkpt>
      <trkpt lat="47.32968" lon="4.99892">
        <ele>272.067</ele>
        <time>2012-09-28T08:26:04Z</time>
      </trkpt>
      <trkpt lat="47.32973" lon="4.99908">
        <ele>268.339</ele>
        <time>2012-09-28T08:26:15Z</time>
      </trkpt>
      <trkpt lat="47.32988" lon="4.99917">
        <ele>266.19</ele>
        <time>2012-09-28T08:26:26Z</time>
      </trkpt>
      <trkpt lat="47.33005" lon="4.99927">
        <ele>265.161</ele>
        <time>2012-09-28T08:26:37Z</time>
      </trkpt>
      <trkpt lat="47.3301" lon="4.99932">
        <ele>268.004</ele>
        <time>2012-09-28T08:26:48Z</time>
      </trkpt>
      <trkpt lat="47.33022" lon="4.99935">
        <ele>266.866</ele>
        <time>2012-09-28T08:26:59Z</time>
      </trkpt>
      <trkpt lat="47.33025" lon="4.99928">
        <ele>267.761</ele>
        <time>2012-09-28T08:27:10Z</time>
      </trkpt>
      <trkpt lat="47.33023" lon="4.99922">
        <ele>266.711</ele>
        <time>2012-09-28T08:27:21Z</time>
      </trkpt>
      <trkpt lat="47.3304" lon="4.99925">
        <ele>267.216</ele>
        <time>2012-09-28T08:27:32Z</time>
      </trkpt>
      <trkpt lat="47.33053" lon="4.99927">
        <ele>265.765</ele>
        <time>2012-09-28T08:27:43Z</time>
      </trkpt>
      <trkpt lat="47.33067" lon="4.9993">
        <ele>269.899</ele>
        <time>2012-09-28T08:27:54Z</time>
      </trkpt>
      <trkpt lat="47.3308" lon="4.99938">
        <ele>276.588</ele>
        <time>2012-09-28T08:28:05Z</time>
      </trkpt>
      <trkpt lat="47.33098" lon="4.99948">
        <ele>275.277</ele>
        <time>2012-09-28T08:28:16Z</time>
      </trkpt>
      <trkpt lat="47.33107" lon="4.99953">
        <ele>273.363</ele>
        <time>2012-09-28T08:28:27Z</time>
      </trkpt>
      <trkpt lat="47.3312" lon="4.99958">
        <ele>274.613</ele>
        <time>2012-09-28T08:28:38Z</time>
      </trkpt>
      <trkpt lat="47.33132" lon="4.99975">
        <ele>280.223</ele>
        <time>2012-09-28T08:28:49Z</time>
      </trkpt>
      <trkpt lat="47.33143" lon="4.99983">
        <ele>284.229</ele>
        <time>2012-09-28T08:29:00Z</time>
      </trkpt>
      <trkpt lat="47.33153" lon="4.99992">
        <ele>283.324</ele>
        <time>2012-09-28T08:29:11Z</time>
      </trkpt>
      <trkpt lat="47.33165" lon="5.00002">
        <ele>283.564</ele>
        <time>2012-09-28T08:29:22Z</time>
      </trkpt>
      <trkpt lat="47.33183" lon="5.00013">
        <ele>285.457</ele>
        <time>2012-09-28T08:29:33Z</time>
      </trkpt>
      <trkpt lat="47.33185" lon="5.00018">
        <ele>287.076</ele>
        <time>2012-09-28T08:29:44Z</time>
      </trkpt>
      <trkpt lat="47.33193" lon="5.0003">
        <ele>288.585</ele>
        <time>2012-09-28T08:29:55Z</time>
      </trkpt>
      <trkpt lat="47.33197" lon="5.00038">
        <ele>290.414</ele>
        <time>2012-09-28T08:30:06Z</time>
      </trkpt>
      <trkpt lat="47.332" lon="5.00045">
        <ele>290.974</ele>
        <time>2012-09-28T08:30:17Z</time>
      </trkpt>
      <trkpt lat="47.33215" lon="5.00062">
        <ele>292.718</ele>
        <time>2012-09-28T08:30:28Z</time>
      </trkpt>
      <trkpt lat="47.33232" lon="5.00088">
        <ele>296.785</ele>
        <time>2012-09-28T08:30:39Z</time>
      </trkpt>
      <trkpt lat="47.33245" lon="5.00105">
        <ele>298.915</ele>
        <time>2012-09-28T08:30:50Z</time>
      </trkpt>
      <trkpt lat="47.3325" lon="5.00118">
        <ele>301.405</ele>
        <time>2012-09-28T08:31:01Z</time>
      </trkpt>
      <trkpt lat="47.33253" lon="5.00128">
        <ele>301.249</ele>
        <time>2012-09-28T08:31:12Z</time>
      </trkpt>
      <trkpt lat="47.33265" lon="5.00148">
        <ele>301.248</ele>
        <time>2012-09-28T08:31:23Z</time>
      </trkpt>
      <trkpt lat="47.33267" lon="5.00155">
        <ele>301.072</ele>
        <time>2012-09-28T08:31:34Z</time>
      </trkpt>
      <trkpt lat="47.33273" lon="5.00168">
        <ele>306.569</ele>
        <time>2012-09-28T08:31:45Z</time>
      </trkpt>
      <trkpt lat="47.33273" lon="5.00175">
        <ele>312.575</ele>
        <time>2012-09-28T08:31:56Z</time>
      </trkpt>
      <trkpt lat="47.33273" lon="5.00178">
        <ele>314.157</ele>
        <time>2012-09-28T08:32:07Z</time>
      </trkpt>
      <trkpt lat="47.33277" lon="5.00185">
        <ele>315.65</ele>
        <time>2012-09-28T08:32:18Z</time>
      </trkpt>
      <trkpt lat="47.33273" lon="5.0019">
        <ele>317.454</ele>
        <time>2012-09-28T08:32:29Z</time>
      </trkpt>
      <trkpt lat="47.33275" lon="5.00193">
        <ele>318.583</ele>
        <time>2012-09-28T08:32:40Z</time>
      </trkpt>
      <trkpt lat="47.33273" lon="5.00193">
        <ele>319.638</ele>
        <time>2012-09-28T08:32:51Z</time>
      </trkpt>
      <trkpt lat="47.33272" lon="5.00195">
        <ele>320.218</ele>
        <time>2012-09-28T08:33:02Z</time>
      </trkpt>
      <trkpt lat="47.33272" lon="5.00195">
        <ele>320.218</ele>
        <time>2012-09-28T08:33:13Z</time>
      </trkpt>
      <trkpt lat="47.33272" lon="5.00195">
        <ele>320.218</ele>
        <time>2012-09-28T08:33:24Z</time>
      </trkpt>
      <trkpt lat="47.33272" lon="5.00195">
        <ele>320.218</ele>
        <time>2012-09-28T08:33:35Z</time>
      </trkpt>
      <trkpt lat="47.33272" lon="5.00195">
        <ele>320.218</ele>
        <time>2012-09-28T08:33:46Z</time>
      </trkpt>
      <trkpt lat="47.33267" lon="5.00202">
        <ele>320.219</ele>
        <time>2012-09-28T08:33:57Z</time>
      </trkpt>
      <trkpt lat="47.33267" lon="5.00208">
        <ele>318.545</ele>
        <time>2012-09-28T08:34:08Z</time>
      </trkpt>
      <trkpt lat="47.33267" lon="5.00208">
        <ele>318.524</ele>
        <time>2012-09-28T08:34:19Z</time>
      </trkpt>
      <trkpt lat="47.33272" lon="5.00223">
        <ele>313.115</ele>
        <time>2012-09-28T08:34:30Z</time>
      </trkpt>
      <trkpt lat="47.33272" lon="5.00223">
        <ele>313.317</ele>
        <time>2012-09-28T08:34:41Z</time>
      </trkpt>
      <trkpt lat="47.33273" lon="5.00228">
        <ele>312.759</ele>
        <time>2012-09-28T08:34:52Z</time>
      </trkpt>
      <trkpt lat="47.3328" lon="5.00235">
        <ele>309.68</ele>
        <time>2012-09-28T08:35:03Z</time>
      </trkpt>
      <trkpt lat="47.33293" lon="5.00248">
        <ele>316.13</ele>
        <time>2012-09-28T08:35:14Z</time>
      </trkpt>
      <trkpt lat="47.33303" lon="5.00252">
        <ele>323.231</ele>
        <time>2012-09-28T08:35:25Z</time>
      </trkpt>
      <trkpt lat="47.33308" lon="5.00255">
        <ele>328.237</ele>
        <time>2012-09-28T08:35:36Z</time>
      </trkpt>
      <trkpt lat="47.33317" lon="5.00265">
        <ele>330.08</ele>
        <time>2012-09-28T08:35:47Z</time>
      </trkpt>
      <trkpt lat="47.33328" lon="5.00275">
        <ele>330.186</ele>
        <time>2012-09-28T08:35:58Z</time>
      </trkpt>
      <trkpt lat="47.33338" lon="5.00282">
        <ele>331.526</ele>
        <time>2012-09-28T08:36:09Z</time>
      </trkpt>
      <trkpt lat="47.33347" lon="5.00287">
        <ele>332.621</ele>
        <time>2012-09-28T08:36:20Z</time>
      </trkpt>
      <trkpt lat="47.33355" lon="5.00293">
        <ele>336.087</ele>
        <time>2012-09-28T08:36:31Z</time>
      </trkpt>
      <trkpt lat="47.33363" lon="5.00298">
        <ele>335.813</ele>
        <time>2012-09-28T08:36:42Z</time>
      </trkpt>
      <trkpt lat="47.33377" lon="5.00308">
        <ele>339.127</ele>
        <time>2012-09-28T08:36:53Z</time>
      </trkpt>
      <trkpt lat="47.33385" lon="5.00312">
        <ele>340.208</ele>
        <time>2012-09-28T08:37:04Z</time>
      </trkpt>
      <trkpt lat="47.33387" lon="5.00313">
        <ele>341.023</ele>
        <time>2012-09-28T08:37:15Z</time>
      </trkpt>
      <trkpt lat="47.33388" lon="5.00313">
        <ele>341.032</ele>
        <time>2012-09-28T08:37:26Z</time>
      </trkpt>
      <trkpt lat="47.33393" lon="5.0032">
        <ele>341.304</ele>
        <time>2012-09-28T08:37:37Z</time>
      </trkpt>
      <trkpt lat="47.334" lon="5.00327">
        <ele>342.168</ele>
        <time>2012-09-28T08:37:48Z</time>
      </trkpt>
      <trkpt lat="47.33415" lon="5.00342">
        <ele>348.794</ele>
        <time>2012-09-28T08:37:59Z</time>
      </trkpt>
      <trkpt lat="47.33418" lon="5.0035">
        <ele>351.038</ele>
        <time>2012-09-28T08:38:10Z</time>
      </trkpt>
      <trkpt lat="47.33423" lon="5.00365">
        <ele>355.103</ele>
        <time>2012-09-28T08:38:21Z</time>
      </trkpt>
      <trkpt lat="47.33422" lon="5.00375">
        <ele>355.085</ele>
        <time>2012-09-28T08:38:32Z</time>
      </trkpt>
      <trkpt lat="47.33415" lon="5.0038">
        <ele>358.393</ele>
        <time>2012-09-28T08:38:43Z</time>
      </trkpt>
      <trkpt lat="47.33415" lon="5.00382">
        <ele>357.711</ele>
        <time>2012-09-28T08:38:54Z</time>
      </trkpt>
      <trkpt lat="47.33412" lon="5.00385">
        <ele>358.289</ele>
        <time>2012-09-28T08:39:05Z</time>
      </trkpt>
      <trkpt lat="47.33412" lon="5.00385">
        <ele>358.289</ele>
        <time>2012-09-28T08:39:16Z</time>
      </trkpt>
      <trkpt lat="47.33412" lon="5.00385">
        <ele>358.289</ele>
        <time>2012-09-28T08:39:27Z</time>
      </trkpt>
      <trkpt lat="47.33412" lon="5.00387">
        <ele>358.987</ele>
        <time>2012-09-28T08:39:38Z</time>
      </trkpt>
      <trkpt lat="47.33412" lon="5.00388">
        <ele>357.287</ele>
        <time>2012-09-28T08:39:49Z</time>
      </trkpt>
      <trkpt lat="47.33412" lon="5.00388">
        <ele>357.287</ele>
        <time>2012-09-28T08:40:00Z</time>
      </trkpt>
      <trkpt lat="47.33413" lon="5.00388">
        <ele>357.697</ele>
        <time>2012-09-28T08:40:11Z</time>
      </trkpt>
      <trkpt lat="47.33418" lon="5.00387">
        <ele>357.113</ele>
        <time>2012-09-28T08:40:22Z</time>
      </trkpt>
      <trkpt lat="47.33432" lon="5.00377">
        <ele>355.192</ele>
        <time>2012-09-28T08:40:33Z</time>
      </trkpt>
      <trkpt lat="47.33437" lon="5.00363">
        <ele>357.217</ele>
        <time>2012-09-28T08:40:44Z</time>
      </trkpt>
      <trkpt lat="47.33447" lon="5.00357">
        <ele>359.25</ele>
        <time>2012-09-28T08:40:55Z</time>
      </trkpt>
      <trkpt lat="47.33453" lon="5.00335">
        <ele>361.244</ele>
        <time>2012-09-28T08:41:06Z</time>
      </trkpt>
      <trkpt lat="47.33467" lon="5.0032">
        <ele>360.841</ele>
        <time>2012-09-28T08:41:17Z</time>
      </trkpt>
      <trkpt lat="47.3348" lon="5.00305">
        <ele>354.187</ele>
        <time>2012-09-28T08:41:28Z</time>
      </trkpt>
      <trkpt lat="47.33495" lon="5.00288">
        <ele>349.36</ele>
        <time>2012-09-28T08:41:39Z</time>
      </trkpt>
      <trkpt lat="47.33505" lon="5.00272">
        <ele>349.531</ele>
        <time>2012-09-28T08:41:50Z</time>
      </trkpt>
      <trkpt lat="47.33515" lon="5.00253">
        <ele>349.656</ele>
        <time>2012-09-28T08:42:01Z</time>
      </trkpt>
      <trkpt lat="47.33532" lon="5.0025">
        <ele>343.944</ele>
        <time>2012-09-28T08:42:12Z</time>
      </trkpt>
      <trkpt lat="47.33535" lon="5.00233">
        <ele>349.58</ele>
        <time>2012-09-28T08:42:23Z</time>
      </trkpt>
      <trkpt lat="47.33543" lon="5.00222">
        <ele>347.658</ele>
        <time>2012-09-28T08:42:34Z</time>
      </trkpt>
      <trkpt lat="47.33555" lon="5.00215">
        <ele>341.182</ele>
        <time>2012-09-28T08:42:45Z</time>
      </trkpt>
      <trkpt lat="47.33565" lon="5.00213">
        <ele>346.101</ele>
        <time>2012-09-28T08:42:56Z</time>
      </trkpt>
      <trkpt lat="47.33583" lon="5.0021">
        <ele>347.101</ele>
        <time>2012-09-28T08:43:07Z</time>
      </trkpt>
      <trkpt lat="47.33578" lon="5.00188">
        <ele>350.19</ele>
        <time>2012-09-28T08:43:18Z</time>
      </trkpt>
      <trkpt lat="47.33568" lon="5.00168">
        <ele>350.41</ele>
        <time>2012-09-28T08:43:29Z</time>
      </trkpt>
      <trkpt lat="47.33563" lon="5.00162">
        <ele>349.016</ele>
        <time>2012-09-28T08:43:40Z</time>
      </trkpt>
      <trkpt lat="47.33543" lon="5.00147">
        <ele>350.126</ele>
        <time>2012-09-28T08:43:51Z</time>
      </trkpt>
      <trkpt lat="47.33527" lon="5.00128">
        <ele>349.881</ele>
        <time>2012-09-28T08:44:02Z</time>
      </trkpt>
      <trkpt lat="47.33517" lon="5.00112">
        <ele>349.522</ele>
        <time>2012-09-28T08:44:13Z</time>
      </trkpt>
      <trkpt lat="47.33508" lon="5.00095">
        <ele>350.562</ele>
        <time>2012-09-28T08:44:24Z</time>
      </trkpt>
      <trkpt lat="47.33495" lon="5.0009">
        <ele>352.026</ele>
        <time>2012-09-28T08:44:35Z</time>
      </trkpt>
      <trkpt lat="47.3349" lon="5.00087">
        <ele>338.939</ele>
        <time>2012-09-28T08:44:46Z</time>
      </trkpt>
      <trkpt lat="47.33485" lon="5.00095">
        <ele>336.566</ele>
        <time>2012-09-28T08:44:57Z</time>
      </trkpt>
      <trkpt lat="47.33465" lon="5.00105">
        <ele>337.421</ele>
        <time>2012-09-28T08:45:08Z</time>
      </trkpt>
      <trkpt lat="47.33445" lon="5.00107">
        <ele>334.935</ele>
        <time>2012-09-28T08:45:19Z</time>
      </trkpt>
      <trkpt lat="47.33428" lon="5.00105">
        <ele>336.234</ele>
        <time>2012-09-28T08:45:30Z</time>
      </trkpt>
      <trkpt lat="47.33403" lon="5.00098">
        <ele>344.002</ele>
        <time>2012-09-28T08:45:41Z</time>
      </trkpt>
      <trkpt lat="47.33378" lon="5.00082">
        <ele>351.103</ele>
        <time>2012-09-28T08:45:52Z</time>
      </trkpt>
      <trkpt lat="47.33357" lon="5.00067">
        <ele>358.263</ele>
        <time>2012-09-28T08:46:03Z</time>
      </trkpt>
      <trkpt lat="47.33345" lon="5.00057">
        <ele>356.395</ele>
        <time>2012-09-28T08:46:14Z</time>
      </trkpt>
      <trkpt lat="47.33327" lon="5.00043">
        <ele>356.367</ele>
        <time>2012-09-28T08:46:25Z</time>
      </trkpt>
      <trkpt lat="47.33313" lon="5.00038">
        <ele>358.216</ele>
        <time>2012-09-28T08:46:36Z</time>
      </trkpt>
      <trkpt lat="47.33308" lon="5.00038">
        <ele>357.372</ele>
        <time>2012-09-28T08:46:47Z</time>
      </trkpt>
      <trkpt lat="47.33308" lon="5.00043">
        <ele>356.454</ele>
        <time>2012-09-28T08:46:58Z</time>
      </trkpt>
      <trkpt lat="47.33307" lon="5.00045">
        <ele>357.099</ele>
        <time>2012-09-28T08:47:09Z</time>
      </trkpt>
      <trkpt lat="47.33305" lon="5.00047">
        <ele>357.407</ele>
        <time>2012-09-28T08:47:20Z</time>
      </trkpt>
      <trkpt lat="47.33305" lon="5.00047">
        <ele>357.407</ele>
        <time>2012-09-28T08:47:31Z</time>
      </trkpt>
      <trkpt lat="47.3329" lon="5.00048">
        <ele>358.973</ele>
        <time>2012-09-28T08:47:42Z</time>
      </trkpt>
      <trkpt lat="47.33282" lon="5.00037">
        <ele>358.478</ele>
        <time>2012-09-28T08:47:53Z</time>
      </trkpt>
      <trkpt lat="47.33273" lon="5.00012">
        <ele>361.109</ele>
        <time>2012-09-28T08:48:04Z</time>
      </trkpt>
      <trkpt lat="47.3327" lon="4.9999">
        <ele>362.478</ele>
        <time>2012-09-28T08:48:15Z</time>
      </trkpt>
      <trkpt lat="47.33268" lon="4.99963">
        <ele>360.851</ele>
        <time>2012-09-28T08:48:26Z</time>
      </trkpt>
      <trkpt lat="47.33263" lon="4.99952">
        <ele>358.071</ele>
        <time>2012-09-28T08:48:37Z</time>
      </trkpt>
      <trkpt lat="47.33257" lon="4.99942">
        <ele>357.723</ele>
        <time>2012-09-28T08:48:48Z</time>
      </trkpt>
      <trkpt lat="47.33247" lon="4.99922">
        <ele>355.793</ele>
        <time>2012-09-28T08:48:59Z</time>
      </trkpt>
      <trkpt lat="47.33247" lon="4.99907">
        <ele>351.144</ele>
        <time>2012-09-28T08:49:10Z</time>
      </trkpt>
      <trkpt lat="47.33255" lon="4.9989">
        <ele>344.21</ele>
        <time>2012-09-28T08:49:21Z</time>
      </trkpt>
      <trkpt lat="47.33258" lon="4.99863">
        <ele>344.247</ele>
        <time>2012-09-28T08:49:32Z</time>
      </trkpt>
      <trkpt lat="47.33267" lon="4.99847">
        <ele>347.402</ele>
        <time>2012-09-28T08:49:43Z</time>
      </trkpt>
      <trkpt lat="47.33282" lon="4.99837">
        <ele>340.918</ele>
        <time>2012-09-28T08:49:54Z</time>
      </trkpt>
      <trkpt lat="47.33298" lon="4.99827">
        <ele>338.054</ele>
        <time>2012-09-28T08:50:05Z</time>
      </trkpt>
      <trkpt lat="47.33315" lon="4.99822">
        <ele>333.756</ele>
        <time>2012-09-28T08:50:16Z</time>
      </trkpt>
      <trkpt lat="47.33332" lon="4.99805">
        <ele>329.224</ele>
        <time>2012-09-28T08:50:27Z</time>
      </trkpt>
      <trkpt lat="47.33347" lon="4.99795">
        <ele>325.241</ele>
        <time>2012-09-28T08:50:38Z</time>
      </trkpt>
      <trkpt lat="47.33363" lon="4.99785">
        <ele>319.448</ele>
        <time>2012-09-28T08:50:49Z</time>
      </trkpt>
      <trkpt lat="47.33382" lon="4.9978">
        <ele>314.302</ele>
        <time>2012-09-28T08:51:00Z</time>
      </trkpt>
      <trkpt lat="47.33402" lon="4.99777">
        <ele>307.449</ele>
        <time>2012-09-28T08:51:11Z</time>
      </trkpt>
      <trkpt lat="47.33418" lon="4.99777">
        <ele>307.365</ele>
        <time>2012-09-28T08:51:22Z</time>
      </trkpt>
      <trkpt lat="47.3343" lon="4.99778">
        <ele>304.673</ele>
        <time>2012-09-28T08:51:33Z</time>
      </trkpt>
      <trkpt lat="47.33447" lon="4.99783">
        <ele>304.621</ele>
        <time>2012-09-28T08:51:44Z</time>
      </trkpt>
      <trkpt lat="47.3346" lon="4.99785">
        <ele>308.253</ele>
        <time>2012-09-28T08:51:55Z</time>
      </trkpt>
      <trkpt lat="47.33475" lon="4.9979">
        <ele>300.436</ele>
        <time>2012-09-28T08:52:06Z</time>
      </trkpt>
      <trkpt lat="47.33492" lon="4.99795">
        <ele>300.545</ele>
        <time>2012-09-28T08:52:17Z</time>
      </trkpt>
      <trkpt lat="47.33505" lon="4.99802">
        <ele>306.141</ele>
        <time>2012-09-28T08:52:28Z</time>
      </trkpt>
      <trkpt lat="47.33517" lon="4.99807">
        <ele>311.459</ele>
        <time>2012-09-28T08:52:39Z</time>
      </trkpt>
      <trkpt lat="47.33527" lon="4.9981">
        <ele>312.479</ele>
        <time>2012-09-28T08:52:50Z</time>
      </trkpt>
      <trkpt lat="47.33545" lon="4.99815">
        <ele>311.403</ele>
        <time>2012-09-28T08:53:01Z</time>
      </trkpt>
      <trkpt lat="47.33557" lon="4.99817">
        <ele>313.82</ele>
        <time>2012-09-28T08:53:12Z</time>
      </trkpt>
      <trkpt lat="47.33573" lon="4.99817">
        <ele>312.117</ele>
        <time>2012-09-28T08:53:23Z</time>
      </trkpt>
      <trkpt lat="47.33577" lon="4.998">
        <ele>313.623</ele>
        <time>2012-09-28T08:53:34Z</time>
      </trkpt>
      <trkpt lat="47.33577" lon="4.99792">
        <ele>312.656</ele>
        <time>2012-09-28T08:53:45Z</time>
      </trkpt>
      <trkpt lat="47.33585" lon="4.9978">
        <ele>311.95</ele>
        <time>2012-09-28T08:53:56Z</time>
      </trkpt>
      <trkpt lat="47.33588" lon="4.99768">
        <ele>313.597</ele>
        <time>2012-09-28T08:54:07Z</time>
      </trkpt>
      <trkpt lat="47.33578" lon="4.99765">
        <ele>317.66</ele>
        <time>2012-09-28T08:54:18Z</time>
      </trkpt>
      <trkpt lat="47.33577" lon="4.9975">
        <ele>315.556</ele>
        <time>2012-09-28T08:54:29Z</time>
      </trkpt>
      <trkpt lat="47.33577" lon="4.99732">
        <ele>313.978</ele>
        <time>2012-09-28T08:54:40Z</time>
      </trkpt>
      <trkpt lat="47.33572" lon="4.99722">
        <ele>316.352</ele>
        <time>2012-09-28T08:54:51Z</time>
      </trkpt>
      <trkpt lat="47.33585" lon="4.99725">
        <ele>313.115</ele>
        <time>2012-09-28T08:55:02Z</time>
      </trkpt>
      <trkpt lat="47.33597" lon="4.99725">
        <ele>310.788</ele>
        <time>2012-09-28T08:55:13Z</time>
      </trkpt>
      <trkpt lat="47.33605" lon="4.99727">
        <ele>307.376</ele>
        <time>2012-09-28T08:55:24Z</time>
      </trkpt>
      <trkpt lat="47.33617" lon="4.99733">
        <ele>305.816</ele>
        <time>2012-09-28T08:55:35Z</time>
      </trkpt>
      <trkpt lat="47.33628" lon="4.99738">
        <ele>302.465</ele>
        <time>2012-09-28T08:55:46Z</time>
      </trkpt>
      <trkpt lat="47.33642" lon="4.9974">
        <ele>300.745</ele>
        <time>2012-09-28T08:55:57Z</time>
      </trkpt>
      <trkpt lat="47.33647" lon="4.9973">
        <ele>303.336</ele>
        <time>2012-09-28T08:56:08Z</time>
      </trkpt>
      <trkpt lat="47.3364" lon="4.99722">
        <ele>311.306</ele>
        <time>2012-09-28T08:56:19Z</time>
      </trkpt>
      <trkpt lat="47.33632" lon="4.99712">
        <ele>310</ele>
        <time>2012-09-28T08:56:30Z</time>
      </trkpt>
      <trkpt lat="47.33623" lon="4.99703">
        <ele>310.752</ele>
        <time>2012-09-28T08:56:41Z</time>
      </trkpt>
      <trkpt lat="47.33617" lon="4.99695">
        <ele>309.76</ele>
        <time>2012-09-28T08:56:52Z</time>
      </trkpt>
      <trkpt lat="47.33598" lon="4.99683">
        <ele>317.922</ele>
        <time>2012-09-28T08:57:03Z</time>
      </trkpt>
      <trkpt lat="47.33587" lon="4.9967">
        <ele>322.061</ele>
        <time>2012-09-28T08:57:14Z</time>
      </trkpt>
      <trkpt lat="47.33573" lon="4.99658">
        <ele>322.458</ele>
        <time>2012-09-28T08:57:25Z</time>
      </trkpt>
      <trkpt lat="47.33563" lon="4.99647">
        <ele>322.511</ele>
        <time>2012-09-28T08:57:36Z</time>
      </trkpt>
      <trkpt lat="47.33565" lon="4.99653">
        <ele>323.015</ele>
        <time>2012-09-28T08:57:47Z</time>
      </trkpt>
      <trkpt lat="47.33565" lon="4.99648">
        <ele>318.575</ele>
        <time>2012-09-28T08:57:58Z</time>
      </trkpt>
      <trkpt lat="47.33562" lon="4.99623">
        <ele>315.954</ele>
        <time>2012-09-28T08:58:09Z</time>
      </trkpt>
      <trkpt lat="47.33548" lon="4.99585">
        <ele>317.959</ele>
        <time>2012-09-28T08:58:20Z</time>
      </trkpt>
      <trkpt lat="47.33543" lon="4.99562">
        <ele>316.426</ele>
        <time>2012-09-28T08:58:31Z</time>
      </trkpt>
      <trkpt lat="47.33533" lon="4.99537">
        <ele>321.44</ele>
        <time>2012-09-28T08:58:42Z</time>
      </trkpt>
      <trkpt lat="47.33525" lon="4.9952">
        <ele>326.725</ele>
        <time>2012-09-28T08:58:53Z</time>
      </trkpt>
      <trkpt lat="47.33518" lon="4.99497">
        <ele>326.19</ele>
        <time>2012-09-28T08:59:04Z</time>
      </trkpt>
      <trkpt lat="47.33508" lon="4.99478">
        <ele>329.349</ele>
        <time>2012-09-28T08:59:15Z</time>
      </trkpt>
      <trkpt lat="47.33502" lon="4.99455">
        <ele>324.614</ele>
        <time>2012-09-28T08:59:26Z</time>
      </trkpt>
      <trkpt lat="47.33502" lon="4.99433">
        <ele>311.331</ele>
        <time>2012-09-28T08:59:37Z</time>
      </trkpt>
      <trkpt lat="47.33493" lon="4.99415">
        <ele>314.765</ele>
        <time>2012-09-28T08:59:48Z</time>
      </trkpt>
      <trkpt lat="47.33487" lon="4.99397">
        <ele>315</ele>
        <time>2012-09-28T08:59:59Z</time>
      </trkpt>
      <trkpt lat="47.3348" lon="4.99378">
        <ele>319.93</ele>
        <time>2012-09-28T09:00:10Z</time>
      </trkpt>
      <trkpt lat="47.33475" lon="4.99357">
        <ele>323.693</ele>
        <time>2012-09-28T09:00:21Z</time>
      </trkpt>
      <trkpt lat="47.3347" lon="4.99338">
        <ele>330</ele>
        <time>2012-09-28T09:00:32Z</time>
      </trkpt>
      <trkpt lat="47.33467" lon="4.99323">
        <ele>337.654</ele>
        <time>2012-09-28T09:00:43Z</time>
      </trkpt>
      <trkpt lat="47.33467" lon="4.99312">
        <ele>342.551</ele>
        <time>2012-09-28T09:00:54Z</time>
      </trkpt>
      <trkpt lat="47.33473" lon="4.99285">
        <ele>337.193</ele>
        <time>2012-09-28T09:01:05Z</time>
      </trkpt>
      <trkpt lat="47.3348" lon="4.99267">
        <ele>336.245</ele>
        <time>2012-09-28T09:01:16Z</time>
      </trkpt>
      <trkpt lat="47.33492" lon="4.99253">
        <ele>329.227</ele>
        <time>2012-09-28T09:01:27Z</time>
      </trkpt>
      <trkpt lat="47.33498" lon="4.9924">
        <ele>326.639</ele>
        <time>2012-09-28T09:01:38Z</time>
      </trkpt>
      <trkpt lat="47.33502" lon="4.99223">
        <ele>330.151</ele>
        <time>2012-09-28T09:01:49Z</time>
      </trkpt>
      <trkpt lat="47.33515" lon="4.9921">
        <ele>323.533</ele>
        <time>2012-09-28T09:02:00Z</time>
      </trkpt>
      <trkpt lat="47.33523" lon="4.99192">
        <ele>324.328</ele>
        <time>2012-09-28T09:02:11Z</time>
      </trkpt>
      <trkpt lat="47.33537" lon="4.99173">
        <ele>319.426</ele>
        <time>2012-09-28T09:02:22Z</time>
      </trkpt>
      <trkpt lat="47.33552" lon="4.99163">
        <ele>315.902</ele>
        <time>2012-09-28T09:02:33Z</time>
      </trkpt>
      <trkpt lat="47.33567" lon="4.99152">
        <ele>309.712</ele>
        <time>2012-09-28T09:02:44Z</time>
      </trkpt>
      <trkpt lat="47.33582" lon="4.99147">
        <ele>309.564</ele>
        <time>2012-09-28T09:02:55Z</time>
      </trkpt>
      <trkpt lat="47.33595" lon="4.99138">
        <ele>309.032</ele>
        <time>2012-09-28T09:03:06Z</time>
      </trkpt>
      <trkpt lat="47.33607" lon="4.9913">
        <ele>308.122</ele>
        <time>2012-09-28T09:03:17Z</time>
      </trkpt>
      <trkpt lat="47.33623" lon="4.99122">
        <ele>303.511</ele>
        <time>2012-09-28T09:03:28Z</time>
      </trkpt>
      <trkpt lat="47.33632" lon="4.99117">
        <ele>307.707</ele>
        <time>2012-09-28T09:03:39Z</time>
      </trkpt>
      <trkpt lat="47.33647" lon="4.99112">
        <ele>310.418</ele>
        <time>2012-09-28T09:03:50Z</time>
      </trkpt>
      <trkpt lat="47.33663" lon="4.99103">
        <ele>303.749</ele>
        <time>2012-09-28T09:04:01Z</time>
      </trkpt>
      <trkpt lat="47.33678" lon="4.99097">
        <ele>302.862</ele>
        <time>2012-09-28T09:04:12Z</time>
      </trkpt>
      <trkpt lat="47.33693" lon="4.99093">
        <ele>305.638</ele>
        <time>2012-09-28T09:04:23Z</time>
      </trkpt>
      <trkpt lat="47.33705" lon="4.99092">
        <ele>304.649</ele>
        <time>2012-09-28T09:04:34Z</time>
      </trkpt>
      <trkpt lat="47.33715" lon="4.99092">
        <ele>303.476</ele>
        <time>2012-09-28T09:04:45Z</time>
      </trkpt>
      <trkpt lat="47.33737" lon="4.99088">
        <ele>297.726</ele>
        <time>2012-09-28T09:04:56Z</time>
      </trkpt>
      <trkpt lat="47.33742" lon="4.99083">
        <ele>301.945</ele>
        <time>2012-09-28T09:05:07Z</time>
      </trkpt>
      <trkpt lat="47.33742" lon="4.99077">
        <ele>305.212</ele>
        <time>2012-09-28T09:05:18Z</time>
      </trkpt>
      <trkpt lat="47.3374" lon="4.99062">
        <ele>310</ele>
        <time>2012-09-28T09:05:29Z</time>
      </trkpt>
      <trkpt lat="47.33737" lon="4.9903">
        <ele>318.106</ele>
        <time>2012-09-28T09:05:40Z</time>
      </trkpt>
      <trkpt lat="47.33735" lon="4.99012">
        <ele>324.402</ele>
        <time>2012-09-28T09:05:51Z</time>
      </trkpt>
      <trkpt lat="47.33738" lon="4.98988">
        <ele>323.588</ele>
        <time>2012-09-28T09:06:02Z</time>
      </trkpt>
      <trkpt lat="47.33743" lon="4.98972">
        <ele>328.085</ele>
        <time>2012-09-28T09:06:13Z</time>
      </trkpt>
      <trkpt lat="47.33758" lon="4.98962">
        <ele>324.573</ele>
        <time>2012-09-28T09:06:24Z</time>
      </trkpt>
      <trkpt lat="47.33762" lon="4.98953">
        <ele>324.274</ele>
        <time>2012-09-28T09:06:35Z</time>
      </trkpt>
      <trkpt lat="47.33767" lon="4.98937">
        <ele>320.501</ele>
        <time>2012-09-28T09:06:46Z</time>
      </trkpt>
      <trkpt lat="47.3377" lon="4.98923">
        <ele>318.713</ele>
        <time>2012-09-28T09:06:57Z</time>
      </trkpt>
      <trkpt lat="47.33783" lon="4.98907">
        <ele>317.808</ele>
        <time>2012-09-28T09:07:08Z</time>
      </trkpt>
      <trkpt lat="47.33795" lon="4.98895">
        <ele>317.052</ele>
        <time>2012-09-28T09:07:19Z</time>
      </trkpt>
      <trkpt lat="47.33808" lon="4.98885">
        <ele>312.343</ele>
        <time>2012-09-28T09:07:30Z</time>
      </trkpt>
      <trkpt lat="47.3382" lon="4.98877">
        <ele>307.987</ele>
        <time>2012-09-28T09:07:41Z</time>
      </trkpt>
      <trkpt lat="47.3383" lon="4.98865">
        <ele>310.371</ele>
        <time>2012-09-28T09:07:52Z</time>
      </trkpt>
      <trkpt lat="47.33838" lon="4.98848">
        <ele>311.409</ele>
        <time>2012-09-28T09:08:03Z</time>
      </trkpt>
      <trkpt lat="47.3385" lon="4.98835">
        <ele>309.018</ele>
        <time>2012-09-28T09:08:14Z</time>
      </trkpt>
      <trkpt lat="47.33858" lon="4.98817">
        <ele>309.942</ele>
        <time>2012-09-28T09:08:25Z</time>
      </trkpt>
      <trkpt lat="47.3387" lon="4.98802">
        <ele>309.842</ele>
        <time>2012-09-28T09:08:36Z</time>
      </trkpt>
      <trkpt lat="47.33883" lon="4.98795">
        <ele>311.071</ele>
        <time>2012-09-28T09:08:47Z</time>
      </trkpt>
      <trkpt lat="47.33895" lon="4.98788">
        <ele>317.944</ele>
        <time>2012-09-28T09:08:58Z</time>
      </trkpt>
      <trkpt lat="47.33905" lon="4.98787">
        <ele>317.593</ele>
        <time>2012-09-28T09:09:09Z</time>
      </trkpt>
      <trkpt lat="47.33918" lon="4.98787">
        <ele>318.54</ele>
        <time>2012-09-28T09:09:20Z</time>
      </trkpt>
      <trkpt lat="47.33932" lon="4.98783">
        <ele>316.246</ele>
        <time>2012-09-28T09:09:31Z</time>
      </trkpt>
      <trkpt lat="47.33943" lon="4.98782">
        <ele>315.594</ele>
        <time>2012-09-28T09:09:42Z</time>
      </trkpt>
      <trkpt lat="47.33952" lon="4.9878">
        <ele>312.969</ele>
        <time>2012-09-28T09:09:53Z</time>
      </trkpt>
      <trkpt lat="47.33963" lon="4.98778">
        <ele>311.145</ele>
        <time>2012-09-28T09:10:04Z</time>
      </trkpt>
      <trkpt lat="47.3397" lon="4.9878">
        <ele>307.073</ele>
        <time>2012-09-28T09:10:15Z</time>
      </trkpt>
      <trkpt lat="47.33973" lon="4.98782">
        <ele>305.629</ele>
        <time>2012-09-28T09:10:26Z</time>
      </trkpt>
      <trkpt lat="47.33975" lon="4.98782">
        <ele>304.412</ele>
        <time>2012-09-28T09:10:37Z</time>
      </trkpt>
      <trkpt lat="47.33975" lon="4.98783">
        <ele>303</ele>
        <time>2012-09-28T09:10:48Z</time>
      </trkpt>
      <trkpt lat="47.33977" lon="4.98785">
        <ele>302.106</ele>
        <time>2012-09-28T09:10:59Z</time>
      </trkpt>
      <trkpt lat="47.33977" lon="4.98783">
        <ele>302.358</ele>
        <time>2012-09-28T09:11:10Z</time>
      </trkpt>
      <trkpt lat="47.33977" lon="4.98785">
        <ele>305.664</ele>
        <time>2012-09-28T09:11:21Z</time>
      </trkpt>
      <trkpt lat="47.33977" lon="4.98785">
        <ele>305</ele>
        <time>2012-09-28T09:11:32Z</time>
      </trkpt>
      <trkpt lat="47.33977" lon="4.98785">
        <ele>305.664</ele>
        <time>2012-09-28T09:11:43Z</time>
      </trkpt>
      <trkpt lat="47.33977" lon="4.98785">
        <ele>305.664</ele>
        <time>2012-09-28T09:11:54Z</time>
      </trkpt>
      <trkpt lat="47.33982" lon="4.9878">
        <ele>308.391</ele>
        <time>2012-09-28T09:12:05Z</time>
      </trkpt>
      <trkpt lat="47.33998" lon="4.98777">
        <ele>297.476</ele>
        <time>2012-09-28T09:12:16Z</time>
      </trkpt>
      <trkpt lat="47.3401" lon="4.98778">
        <ele>296.661</ele>
        <time>2012-09-28T09:12:27Z</time>
      </trkpt>
      <trkpt lat="47.34025" lon="4.98777">
        <ele>290.042</ele>
        <time>2012-09-28T09:12:38Z</time>
      </trkpt>
      <trkpt lat="47.34023" lon="4.98778">
        <ele>309.789</ele>
        <time>2012-09-28T09:12:49Z</time>
      </trkpt>
      <trkpt lat="47.34027" lon="4.9878">
        <ele>319.722</ele>
        <time>2012-09-28T09:13:00Z</time>
      </trkpt>
      <trkpt lat="47.34035" lon="4.98783">
        <ele>320.967</ele>
        <time>2012-09-28T09:13:11Z</time>
      </trkpt>
      <trkpt lat="47.34043" lon="4.98788">
        <ele>330</ele>
        <time>2012-09-28T09:13:22Z</time>
      </trkpt>
      <trkpt lat="47.34048" lon="4.988">
        <ele>334.688</ele>
        <time>2012-09-28T09:13:33Z</time>
      </trkpt>
      <trkpt lat="47.34067" lon="4.98807">
        <ele>324.068</ele>
        <time>2012-09-28T09:13:44Z</time>
      </trkpt>
      <trkpt lat="47.34073" lon="4.9881">
        <ele>326.016</ele>
        <time>2012-09-28T09:13:55Z</time>
      </trkpt>
      <trkpt lat="47.34082" lon="4.98822">
        <ele>327.287</ele>
        <time>2012-09-28T09:14:06Z</time>
      </trkpt>
      <trkpt lat="47.34092" lon="4.98818">
        <ele>330.477</ele>
        <time>2012-09-28T09:14:17Z</time>
      </trkpt>
      <trkpt lat="47.34115" lon="4.98815">
        <ele>331.378</ele>
        <time>2012-09-28T09:14:28Z</time>
      </trkpt>
      <trkpt lat="47.3412" lon="4.98832">
        <ele>326.719</ele>
        <time>2012-09-28T09:14:39Z</time>
      </trkpt>
      <trkpt lat="47.3412" lon="4.9884">
        <ele>327.265</ele>
        <time>2012-09-28T09:14:50Z</time>
      </trkpt>
      <trkpt lat="47.3411" lon="4.98865">
        <ele>332.002</ele>
        <time>2012-09-28T09:15:01Z</time>
      </trkpt>
      <trkpt lat="47.34105" lon="4.9888">
        <ele>336.029</ele>
        <time>2012-09-28T09:15:12Z</time>
      </trkpt>
      <trkpt lat="47.34108" lon="4.98898">
        <ele>339.777</ele>
        <time>2012-09-28T09:15:23Z</time>
      </trkpt>
      <trkpt lat="47.34122" lon="4.98915">
        <ele>335.731</ele>
        <time>2012-09-28T09:15:34Z</time>
      </trkpt>
      <trkpt lat="47.34127" lon="4.98933">
        <ele>332.608</ele>
        <time>2012-09-28T09:15:45Z</time>
      </trkpt>
      <trkpt lat="47.34142" lon="4.98945">
        <ele>331.426</ele>
        <time>2012-09-28T09:15:56Z</time>
      </trkpt>
      <trkpt lat="47.34147" lon="4.98957">
        <ele>330.527</ele>
        <time>2012-09-28T09:16:07Z</time>
      </trkpt>
      <trkpt lat="47.34157" lon="4.98963">
        <ele>333.364</ele>
        <time>2012-09-28T09:16:18Z</time>
      </trkpt>
      <trkpt lat="47.34168" lon="4.98983">
        <ele>327.703</ele>
        <time>2012-09-28T09:16:29Z</time>
      </trkpt>
      <trkpt lat="47.34182" lon="4.98998">
        <ele>326.027</ele>
        <time>2012-09-28T09:16:40Z</time>
      </trkpt>
      <trkpt lat="47.34195" lon="4.99022">
        <ele>329.83</ele>
        <time>2012-09-28T09:16:51Z</time>
      </trkpt>
      <trkpt lat="47.34192" lon="4.99027">
        <ele>355.09</ele>
        <time>2012-09-28T09:17:02Z</time>
      </trkpt>
      <trkpt lat="47.34187" lon="4.99045">
        <ele>363.285</ele>
        <time>2012-09-28T09:17:13Z</time>
      </trkpt>
      <trkpt lat="47.342" lon="4.99065">
        <ele>356.407</ele>
        <time>2012-09-28T09:17:24Z</time>
      </trkpt>
      <trkpt lat="47.34203" lon="4.9907">
        <ele>356.304</ele>
        <time>2012-09-28T09:17:35Z</time>
      </trkpt>
      <trkpt lat="47.34217" lon="4.9908">
        <ele>348.358</ele>
        <time>2012-09-28T09:17:46Z</time>
      </trkpt>
      <trkpt lat="47.3424" lon="4.99097">
        <ele>341.777</ele>
        <time>2012-09-28T09:17:57Z</time>
      </trkpt>
      <trkpt lat="47.34248" lon="4.99105">
        <ele>340</ele>
        <time>2012-09-28T09:18:08Z</time>
      </trkpt>
      <trkpt lat="47.34268" lon="4.99115">
        <ele>330.423</ele>
        <time>2012-09-28T09:18:19Z</time>
      </trkpt>
      <trkpt lat="47.3429" lon="4.99123">
        <ele>325.191</ele>
        <time>2012-09-28T09:18:30Z</time>
      </trkpt>
      <trkpt lat="47.34302" lon="4.9913">
        <ele>320.477</ele>
        <time>2012-09-28T09:18:41Z</time>
      </trkpt>
      <trkpt lat="47.34308" lon="4.99138">
        <ele>325.214</ele>
        <time>2012-09-28T09:18:52Z</time>
      </trkpt>
      <trkpt lat="47.34315" lon="4.99152">
        <ele>332.182</ele>
        <time>2012-09-28T09:19:03Z</time>
      </trkpt>
      <trkpt lat="47.34328" lon="4.99175">
        <ele>334.011</ele>
        <time>2012-09-28T09:19:14Z</time>
      </trkpt>
      <trkpt lat="47.34335" lon="4.99195">
        <ele>337.105</ele>
        <time>2012-09-28T09:19:25Z</time>
      </trkpt>
      <trkpt lat="47.34338" lon="4.99218">
        <ele>348.404</ele>
        <time>2012-09-28T09:19:36Z</time>
      </trkpt>
      <trkpt lat="47.34342" lon="4.99238">
        <ele>351.437</ele>
        <time>2012-09-28T09:19:47Z</time>
      </trkpt>
      <trkpt lat="47.34343" lon="4.9926">
        <ele>355.979</ele>
        <time>2012-09-28T09:19:58Z</time>
      </trkpt>
      <trkpt lat="47.34342" lon="4.99282">
        <ele>361.904</ele>
        <time>2012-09-28T09:20:09Z</time>
      </trkpt>
      <trkpt lat="47.34335" lon="4.99307">
        <ele>370.116</ele>
        <time>2012-09-28T09:20:20Z</time>
      </trkpt>
      <trkpt lat="47.34332" lon="4.9933">
        <ele>372.743</ele>
        <time>2012-09-28T09:20:31Z</time>
      </trkpt>
      <trkpt lat="47.34333" lon="4.99343">
        <ele>372.699</ele>
        <time>2012-09-28T09:20:42Z</time>
      </trkpt>
      <trkpt lat="47.34345" lon="4.99337">
        <ele>369.729</ele>
        <time>2012-09-28T09:20:53Z</time>
      </trkpt>
      <trkpt lat="47.34362" lon="4.99328">
        <ele>360</ele>
        <time>2012-09-28T09:21:04Z</time>
      </trkpt>
      <trkpt lat="47.34375" lon="4.99318">
        <ele>354.596</ele>
        <time>2012-09-28T09:21:15Z</time>
      </trkpt>
      <trkpt lat="47.3439" lon="4.99305">
        <ele>350.761</ele>
        <time>2012-09-28T09:21:26Z</time>
      </trkpt>
      <trkpt lat="47.34407" lon="4.99292">
        <ele>343.674</ele>
        <time>2012-09-28T09:21:37Z</time>
      </trkpt>
      <trkpt lat="47.34427" lon="4.9928">
        <ele>332.428</ele>
        <time>2012-09-28T09:21:48Z</time>
      </trkpt>
      <trkpt lat="47.3444" lon="4.99262">
        <ele>326.483</ele>
        <time>2012-09-28T09:21:59Z</time>
      </trkpt>
      <trkpt lat="47.34447" lon="4.99242">
        <ele>329.594</ele>
        <time>2012-09-28T09:22:10Z</time>
      </trkpt>
      <trkpt lat="47.34447" lon="4.99225">
        <ele>330</ele>
        <time>2012-09-28T09:22:21Z</time>
      </trkpt>
      <trkpt lat="47.34445" lon="4.9921">
        <ele>340.398</ele>
        <time>2012-09-28T09:22:32Z</time>
      </trkpt>
      <trkpt lat="47.34447" lon="4.99202">
        <ele>348.28</ele>
        <time>2012-09-28T09:22:43Z</time>
      </trkpt>
      <trkpt lat="47.34447" lon="4.9918">
        <ele>355.662</ele>
        <time>2012-09-28T09:22:54Z</time>
      </trkpt>
      <trkpt lat="47.34445" lon="4.99165">
        <ele>362.496</ele>
        <time>2012-09-28T09:23:05Z</time>
      </trkpt>
      <trkpt lat="47.34447" lon="4.99145">
        <ele>363.062</ele>
        <time>2012-09-28T09:23:16Z</time>
      </trkpt>
      <trkpt lat="47.34448" lon="4.99127">
        <ele>364.821</ele>
        <time>2012-09-28T09:23:27Z</time>
      </trkpt>
      <trkpt lat="47.34452" lon="4.99105">
        <ele>369.742</ele>
        <time>2012-09-28T09:23:38Z</time>
      </trkpt>
      <trkpt lat="47.34452" lon="4.99077">
        <ele>376.915</ele>
        <time>2012-09-28T09:23:49Z</time>
      </trkpt>
      <trkpt lat="47.34448" lon="4.99052">
        <ele>389.037</ele>
        <time>2012-09-28T09:24:00Z</time>
      </trkpt>
      <trkpt lat="47.34448" lon="4.99035">
        <ele>396.047</ele>
        <time>2012-09-28T09:24:11Z</time>
      </trkpt>
      <trkpt lat="47.34452" lon="4.9901">
        <ele>393.542</ele>
        <time>2012-09-28T09:24:22Z</time>
      </trkpt>
      <trkpt lat="47.34457" lon="4.98987">
        <ele>391.202</ele>
        <time>2012-09-28T09:24:33Z</time>
      </trkpt>
      <trkpt lat="47.3446" lon="4.98972">
        <ele>390.415</ele>
        <time>2012-09-28T09:24:44Z</time>
      </trkpt>
      <trkpt lat="47.34453" lon="4.98952">
        <ele>396.484</ele>
        <time>2012-09-28T09:24:55Z</time>
      </trkpt>
      <trkpt lat="47.34447" lon="4.98938">
        <ele>395.868</ele>
        <time>2012-09-28T09:25:06Z</time>
      </trkpt>
      <trkpt lat="47.34433" lon="4.98932">
        <ele>394.694</ele>
        <time>2012-09-28T09:25:17Z</time>
      </trkpt>
      <trkpt lat="47.34428" lon="4.9891">
        <ele>390.867</ele>
        <time>2012-09-28T09:25:28Z</time>
      </trkpt>
      <trkpt lat="47.34425" lon="4.989">
        <ele>379.359</ele>
        <time>2012-09-28T09:25:39Z</time>
      </trkpt>
      <trkpt lat="47.34417" lon="4.98892">
        <ele>367.324</ele>
        <time>2012-09-28T09:25:50Z</time>
      </trkpt>
      <trkpt lat="47.34398" lon="4.98887">
        <ele>367.083</ele>
        <time>2012-09-28T09:26:01Z</time>
      </trkpt>
      <trkpt lat="47.34383" lon="4.98883">
        <ele>360.933</ele>
        <time>2012-09-28T09:26:12Z</time>
      </trkpt>
      <trkpt lat="47.3438" lon="4.98877">
        <ele>352.459</ele>
        <time>2012-09-28T09:26:23Z</time>
      </trkpt>
      <trkpt lat="47.3438" lon="4.98877">
        <ele>349.331</ele>
        <time>2012-09-28T09:26:34Z</time>
      </trkpt>
      <trkpt lat="47.3437" lon="4.98875">
        <ele>350</ele>
        <time>2012-09-28T09:26:45Z</time>
      </trkpt>
      <trkpt lat="47.34368" lon="4.9888">
        <ele>350.718</ele>
        <time>2012-09-28T09:26:56Z</time>
      </trkpt>
      <trkpt lat="47.34352" lon="4.98878">
        <ele>354.465</ele>
        <time>2012-09-28T09:27:07Z</time>
      </trkpt>
      <trkpt lat="47.34332" lon="4.98865">
        <ele>369.585</ele>
        <time>2012-09-28T09:27:18Z</time>
      </trkpt>
      <trkpt lat="47.34327" lon="4.98845">
        <ele>378.509</ele>
        <time>2012-09-28T09:27:29Z</time>
      </trkpt>
      <trkpt lat="47.34328" lon="4.98837">
        <ele>386.18</ele>
        <time>2012-09-28T09:27:40Z</time>
      </trkpt>
      <trkpt lat="47.34333" lon="4.98827">
        <ele>388.71</ele>
        <time>2012-09-28T09:27:51Z</time>
      </trkpt>
      <trkpt lat="47.34342" lon="4.98822">
        <ele>390.481</ele>
        <time>2012-09-28T09:28:02Z</time>
      </trkpt>
      <trkpt lat="47.34352" lon="4.98813">
        <ele>388</ele>
        <time>2012-09-28T09:28:13Z</time>
      </trkpt>
      <trkpt lat="47.34363" lon="4.98797">
        <ele>386.888</ele>
        <time>2012-09-28T09:28:24Z</time>
      </trkpt>
      <trkpt lat="47.34377" lon="4.9879">
        <ele>381.543</ele>
        <time>2012-09-28T09:28:35Z</time>
      </trkpt>
      <trkpt lat="47.34388" lon="4.9878">
        <ele>375.144</ele>
        <time>2012-09-28T09:28:46Z</time>
      </trkpt>
      <trkpt lat="47.34393" lon="4.98772">
        <ele>373.915</ele>
        <time>2012-09-28T09:28:57Z</time>
      </trkpt>
      <trkpt lat="47.34392" lon="4.98757">
        <ele>379.503</ele>
        <time>2012-09-28T09:29:08Z</time>
      </trkpt>
      <trkpt lat="47.34388" lon="4.98738">
        <ele>378.02</ele>
        <time>2012-09-28T09:29:19Z</time>
      </trkpt>
      <trkpt lat="47.34387" lon="4.98725">
        <ele>374.693</ele>
        <time>2012-09-28T09:29:30Z</time>
      </trkpt>
      <trkpt lat="47.34375" lon="4.98713">
        <ele>373.927</ele>
        <time>2012-09-28T09:29:41Z</time>
      </trkpt>
      <trkpt lat="47.34362" lon="4.98698">
        <ele>375.882</ele>
        <time>2012-09-28T09:29:52Z</time>
      </trkpt>
      <trkpt lat="47.3435" lon="4.98687">
        <ele>379.665</ele>
        <time>2012-09-28T09:30:03Z</time>
      </trkpt>
      <trkpt lat="47.3434" lon="4.98675">
        <ele>380.197</ele>
        <time>2012-09-28T09:30:14Z</time>
      </trkpt>
      <trkpt lat="47.34332" lon="4.98665">
        <ele>382.12</ele>
        <time>2012-09-28T09:30:25Z</time>
      </trkpt>
      <trkpt lat="47.34322" lon="4.98643">
        <ele>381.293</ele>
        <time>2012-09-28T09:30:36Z</time>
      </trkpt>
      <trkpt lat="47.34315" lon="4.98632">
        <ele>382.016</ele>
        <time>2012-09-28T09:30:47Z</time>
      </trkpt>
      <trkpt lat="47.34307" lon="4.98628">
        <ele>381</ele>
        <time>2012-09-28T09:30:58Z</time>
      </trkpt>
      <trkpt lat="47.34303" lon="4.98627">
        <ele>381.744</ele>
        <time>2012-09-28T09:31:09Z</time>
      </trkpt>
      <trkpt lat="47.34303" lon="4.98625">
        <ele>380.419</ele>
        <time>2012-09-28T09:31:20Z</time>
      </trkpt>
      <trkpt lat="47.34297" lon="4.98615">
        <ele>376.258</ele>
        <time>2012-09-28T09:31:31Z</time>
      </trkpt>
      <trkpt lat="47.3429" lon="4.98603">
        <ele>372.946</ele>
        <time>2012-09-28T09:31:42Z</time>
      </trkpt>
      <trkpt lat="47.34287" lon="4.98587">
        <ele>372</ele>
        <time>2012-09-28T09:31:53Z</time>
      </trkpt>
      <trkpt lat="47.34282" lon="4.98573">
        <ele>371.568</ele>
        <time>2012-09-28T09:32:04Z</time>
      </trkpt>
      <trkpt lat="47.34272" lon="4.98558">
        <ele>374.81</ele>
        <time>2012-09-28T09:32:15Z</time>
      </trkpt>
      <trkpt lat="47.34257" lon="4.98545">
        <ele>366.058</ele>
        <time>2012-09-28T09:32:26Z</time>
      </trkpt>
      <trkpt lat="47.3423" lon="4.9854">
        <ele>373.007</ele>
        <time>2012-09-28T09:32:37Z</time>
      </trkpt>
      <trkpt lat="47.34213" lon="4.98542">
        <ele>373.821</ele>
        <time>2012-09-28T09:32:48Z</time>
      </trkpt>
      <trkpt lat="47.34202" lon="4.98543">
        <ele>378.54</ele>
        <time>2012-09-28T09:32:59Z</time>
      </trkpt>
      <trkpt lat="47.34197" lon="4.98537">
        <ele>376.636</ele>
        <time>2012-09-28T09:33:10Z</time>
      </trkpt>
      <trkpt lat="47.34193" lon="4.98528">
        <ele>369.852</ele>
        <time>2012-09-28T09:33:21Z</time>
      </trkpt>
      <trkpt lat="47.34182" lon="4.98512">
        <ele>365.644</ele>
        <time>2012-09-28T09:33:32Z</time>
      </trkpt>
      <trkpt lat="47.34183" lon="4.98492">
        <ele>356.905</ele>
        <time>2012-09-28T09:33:43Z</time>
      </trkpt>
      <trkpt lat="47.34173" lon="4.98473">
        <ele>346.569</ele>
        <time>2012-09-28T09:33:54Z</time>
      </trkpt>
      <trkpt lat="47.34153" lon="4.98463">
        <ele>352.612</ele>
        <time>2012-09-28T09:34:05Z</time>
      </trkpt>
      <trkpt lat="47.34133" lon="4.98455">
        <ele>362.471</ele>
        <time>2012-09-28T09:34:16Z</time>
      </trkpt>
      <trkpt lat="47.34113" lon="4.98447">
        <ele>367.044</ele>
        <time>2012-09-28T09:34:27Z</time>
      </trkpt>
      <trkpt lat="47.34115" lon="4.98437">
        <ele>370</ele>
        <time>2012-09-28T09:34:38Z</time>
      </trkpt>
      <trkpt lat="47.3409" lon="4.98423">
        <ele>373.371</ele>
        <time>2012-09-28T09:34:49Z</time>
      </trkpt>
      <trkpt lat="47.3408" lon="4.9841">
        <ele>373.225</ele>
        <time>2012-09-28T09:35:00Z</time>
      </trkpt>
      <trkpt lat="47.34067" lon="4.98402">
        <ele>370.69</ele>
        <time>2012-09-28T09:35:11Z</time>
      </trkpt>
      <trkpt lat="47.3405" lon="4.98402">
        <ele>366.454</ele>
        <time>2012-09-28T09:35:22Z</time>
      </trkpt>
      <trkpt lat="47.34027" lon="4.98392">
        <ele>373.758</ele>
        <time>2012-09-28T09:35:33Z</time>
      </trkpt>
      <trkpt lat="47.3402" lon="4.98387">
        <ele>373.437</ele>
        <time>2012-09-28T09:35:44Z</time>
      </trkpt>
      <trkpt lat="47.34002" lon="4.98375">
        <ele>375.733</ele>
        <time>2012-09-28T09:35:55Z</time>
      </trkpt>
      <trkpt lat="47.33982" lon="4.98353">
        <ele>389.003</ele>
        <time>2012-09-28T09:36:06Z</time>
      </trkpt>
      <trkpt lat="47.33973" lon="4.9834">
        <ele>380</ele>
        <time>2012-09-28T09:36:17Z</time>
      </trkpt>
      <trkpt lat="47.33963" lon="4.98328">
        <ele>377.274</ele>
        <time>2012-09-28T09:36:28Z</time>
      </trkpt>
      <trkpt lat="47.33955" lon="4.98323">
        <ele>375.746</ele>
        <time>2012-09-28T09:36:39Z</time>
      </trkpt>
      <trkpt lat="47.33947" lon="4.98318">
        <ele>370.374</ele>
        <time>2012-09-28T09:36:50Z</time>
      </trkpt>
      <trkpt lat="47.33932" lon="4.98308">
        <ele>374.521</ele>
        <time>2012-09-28T09:37:01Z</time>
      </trkpt>
      <trkpt lat="47.33945" lon="4.98295">
        <ele>365.572</ele>
        <time>2012-09-28T09:37:12Z</time>
      </trkpt>
      <trkpt lat="47.33952" lon="4.9828">
        <ele>362.808</ele>
        <time>2012-09-28T09:37:23Z</time>
      </trkpt>
      <trkpt lat="47.33948" lon="4.98267">
        <ele>358.204</ele>
        <time>2012-09-28T09:37:34Z</time>
      </trkpt>
      <trkpt lat="47.33938" lon="4.98257">
        <ele>357.565</ele>
        <time>2012-09-28T09:37:45Z</time>
      </trkpt>
      <trkpt lat="47.33935" lon="4.98253">
        <ele>353.328</ele>
        <time>2012-09-28T09:37:56Z</time>
      </trkpt>
      <trkpt lat="47.3393" lon="4.9825">
        <ele>353.998</ele>
        <time>2012-09-28T09:38:07Z</time>
      </trkpt>
      <trkpt lat="47.33925" lon="4.98245">
        <ele>351.788</ele>
        <time>2012-09-28T09:38:18Z</time>
      </trkpt>
      <trkpt lat="47.33912" lon="4.9824">
        <ele>349.293</ele>
        <time>2012-09-28T09:38:29Z</time>
      </trkpt>
      <trkpt lat="47.33907" lon="4.98228">
        <ele>337.417</ele>
        <time>2012-09-28T09:38:40Z</time>
      </trkpt>
      <trkpt lat="47.33897" lon="4.98218">
        <ele>328.88</ele>
        <time>2012-09-28T09:38:51Z</time>
      </trkpt>
      <trkpt lat="47.3388" lon="4.98215">
        <ele>324.495</ele>
        <time>2012-09-28T09:39:02Z</time>
      </trkpt>
      <trkpt lat="47.33868" lon="4.98208">
        <ele>317.34</ele>
        <time>2012-09-28T09:39:13Z</time>
      </trkpt>
      <trkpt lat="47.33845" lon="4.98207">
        <ele>322.067</ele>
        <time>2012-09-28T09:39:24Z</time>
      </trkpt>
      <trkpt lat="47.3383" lon="4.98207">
        <ele>322.656</ele>
        <time>2012-09-28T09:39:35Z</time>
      </trkpt>
      <trkpt lat="47.33815" lon="4.98207">
        <ele>323.071</ele>
        <time>2012-09-28T09:39:46Z</time>
      </trkpt>
      <trkpt lat="47.338" lon="4.98203">
        <ele>319.79</ele>
        <time>2012-09-28T09:39:57Z</time>
      </trkpt>
      <trkpt lat="47.33787" lon="4.98203">
        <ele>312</ele>
        <time>2012-09-28T09:40:08Z</time>
      </trkpt>
      <trkpt lat="47.33778" lon="4.98222">
        <ele>306.746</ele>
        <time>2012-09-28T09:40:19Z</time>
      </trkpt>
      <trkpt lat="47.33777" lon="4.98237">
        <ele>302.229</ele>
        <time>2012-09-28T09:40:30Z</time>
      </trkpt>
      <trkpt lat="47.33767" lon="4.98257">
        <ele>302.647</ele>
        <time>2012-09-28T09:40:41Z</time>
      </trkpt>
      <trkpt lat="47.33765" lon="4.98273">
        <ele>298.84</ele>
        <time>2012-09-28T09:40:52Z</time>
      </trkpt>
      <trkpt lat="47.33768" lon="4.98287">
        <ele>289.993</ele>
        <time>2012-09-28T09:41:03Z</time>
      </trkpt>
      <trkpt lat="47.33767" lon="4.98303">
        <ele>283.659</ele>
        <time>2012-09-28T09:41:14Z</time>
      </trkpt>
      <trkpt lat="47.33758" lon="4.98325">
        <ele>280.907</ele>
        <time>2012-09-28T09:41:25Z</time>
      </trkpt>
      <trkpt lat="47.33768" lon="4.98337">
        <ele>267.452</ele>
        <time>2012-09-28T09:41:36Z</time>
      </trkpt>
      <trkpt lat="47.33772" lon="4.9835">
        <ele>261.126</ele>
        <time>2012-09-28T09:41:47Z</time>
      </trkpt>
      <trkpt lat="47.33767" lon="4.98372">
        <ele>257.271</ele>
        <time>2012-09-28T09:41:58Z</time>
      </trkpt>
      <trkpt lat="47.33762" lon="4.98388">
        <ele>250.075</ele>
        <time>2012-09-28T09:42:09Z</time>
      </trkpt>
      <trkpt lat="47.33765" lon="4.98397">
        <ele>244</ele>
        <time>2012-09-28T09:42:20Z</time>
      </trkpt>
      <trkpt lat="47.33763" lon="4.98403">
        <ele>243.03</ele>
        <time>2012-09-28T09:42:31Z</time>
      </trkpt>
      <trkpt lat="47.33753" lon="4.98418">
        <ele>239.93</ele>
        <time>2012-09-28T09:42:42Z</time>
      </trkpt>
      <trkpt lat="47.33738" lon="4.9844">
        <ele>250.026</ele>
        <time>2012-09-28T09:42:53Z</time>
      </trkpt>
      <trkpt lat="47.33745" lon="4.98455">
        <ele>238.736</ele>
        <time>2012-09-28T09:43:04Z</time>
      </trkpt>
      <trkpt lat="47.33723" lon="4.98478">
        <ele>246.33</ele>
        <time>2012-09-28T09:43:15Z</time>
      </trkpt>
      <trkpt lat="47.33715" lon="4.985">
        <ele>244.01</ele>
        <time>2012-09-28T09:43:26Z</time>
      </trkpt>
      <trkpt lat="47.33712" lon="4.9852">
        <ele>240.085</ele>
        <time>2012-09-28T09:43:37Z</time>
      </trkpt>
      <trkpt lat="47.3371" lon="4.98533">
        <ele>236.691</ele>
        <time>2012-09-28T09:43:48Z</time>
      </trkpt>
      <trkpt lat="47.33708" lon="4.9855">
        <ele>231.924</ele>
        <time>2012-09-28T09:43:59Z</time>
      </trkpt>
      <trkpt lat="47.337" lon="4.9857">
        <ele>232.737</ele>
        <time>2012-09-28T09:44:10Z</time>
      </trkpt>
      <trkpt lat="47.33697" lon="4.98585">
        <ele>228.799</ele>
        <time>2012-09-28T09:44:21Z</time>
      </trkpt>
      <trkpt lat="47.33693" lon="4.98598">
        <ele>225.018</ele>
        <time>2012-09-28T09:44:32Z</time>
      </trkpt>
      <trkpt lat="47.33692" lon="4.98608">
        <ele>221.29</ele>
        <time>2012-09-28T09:44:43Z</time>
      </trkpt>
      <trkpt lat="47.33673" lon="4.98627">
        <ele>226.389</ele>
        <time>2012-09-28T09:44:54Z</time>
      </trkpt>
      <trkpt lat="47.33652" lon="4.98647">
        <ele>228.812</ele>
        <time>2012-09-28T09:45:05Z</time>
      </trkpt>
      <trkpt lat="47.33643" lon="4.98657">
        <ele>230.471</ele>
        <time>2012-09-28T09:45:16Z</time>
      </trkpt>
      <trkpt lat="47.3363" lon="4.98673">
        <ele>235.575</ele>
        <time>2012-09-28T09:45:27Z</time>
      </trkpt>
      <trkpt lat="47.33625" lon="4.98688">
        <ele>232.485</ele>
        <time>2012-09-28T09:45:38Z</time>
      </trkpt>
      <trkpt lat="47.33617" lon="4.98692">
        <ele>228.286</ele>
        <time>2012-09-28T09:45:49Z</time>
      </trkpt>
      <trkpt lat="47.33598" lon="4.98688">
        <ele>233.498</ele>
        <time>2012-09-28T09:46:00Z</time>
      </trkpt>
      <trkpt lat="47.33573" lon="4.98682">
        <ele>242.865</ele>
        <time>2012-09-28T09:46:11Z</time>
      </trkpt>
      <trkpt lat="47.33542" lon="4.98672">
        <ele>259.282</ele>
        <time>2012-09-28T09:46:22Z</time>
      </trkpt>
      <trkpt lat="47.33523" lon="4.98683">
        <ele>267.424</ele>
        <time>2012-09-28T09:46:33Z</time>
      </trkpt>
      <trkpt lat="47.3352" lon="4.98692">
        <ele>264.24</ele>
        <time>2012-09-28T09:46:44Z</time>
      </trkpt>
      <trkpt lat="47.33522" lon="4.98705">
        <ele>256.686</ele>
        <time>2012-09-28T09:46:55Z</time>
      </trkpt>
      <trkpt lat="47.33515" lon="4.98717">
        <ele>254.249</ele>
        <time>2012-09-28T09:47:06Z</time>
      </trkpt>
      <trkpt lat="47.33498" lon="4.98735">
        <ele>256.601</ele>
        <time>2012-09-28T09:47:17Z</time>
      </trkpt>
      <trkpt lat="47.33493" lon="4.98747">
        <ele>250.663</ele>
        <time>2012-09-28T09:47:28Z</time>
      </trkpt>
      <trkpt lat="47.33495" lon="4.98753">
        <ele>241.036</ele>
        <time>2012-09-28T09:47:39Z</time>
      </trkpt>
      <trkpt lat="47.33495" lon="4.98763">
        <ele>234.813</ele>
        <time>2012-09-28T09:47:50Z</time>
      </trkpt>
      <trkpt lat="47.33493" lon="4.98765">
        <ele>235.464</ele>
        <time>2012-09-28T09:48:01Z</time>
      </trkpt>
      <trkpt lat="47.335" lon="4.98765">
        <ele>228.245</ele>
        <time>2012-09-28T09:48:12Z</time>
      </trkpt>
      <trkpt lat="47.33495" lon="4.98777">
        <ele>226.76</ele>
        <time>2012-09-28T09:48:23Z</time>
      </trkpt>
      <trkpt lat="47.33495" lon="4.9879">
        <ele>218.262</ele>
        <time>2012-09-28T09:48:34Z</time>
      </trkpt>
      <trkpt lat="47.33487" lon="4.98798">
        <ele>223.8</ele>
        <time>2012-09-28T09:48:45Z</time>
      </trkpt>
      <trkpt lat="47.33467" lon="4.98818">
        <ele>238.348</ele>
        <time>2012-09-28T09:48:56Z</time>
      </trkpt>
      <trkpt lat="47.33463" lon="4.98827">
        <ele>237.896</ele>
        <time>2012-09-28T09:49:07Z</time>
      </trkpt>
      <trkpt lat="47.33458" lon="4.9884">
        <ele>242.363</ele>
        <time>2012-09-28T09:49:18Z</time>
      </trkpt>
      <trkpt lat="47.33462" lon="4.98847">
        <ele>243.13</ele>
        <time>2012-09-28T09:49:29Z</time>
      </trkpt>
      <trkpt lat="47.33467" lon="4.9886">
        <ele>227.962</ele>
        <time>2012-09-28T09:49:40Z</time>
      </trkpt>
      <trkpt lat="47.33465" lon="4.98875">
        <ele>216.408</ele>
        <time>2012-09-28T09:49:51Z</time>
      </trkpt>
      <trkpt lat="47.33453" lon="4.98888">
        <ele>219.32</ele>
        <time>2012-09-28T09:50:02Z</time>
      </trkpt>
      <trkpt lat="47.33448" lon="4.98902">
        <ele>217.917</ele>
        <time>2012-09-28T09:50:13Z</time>
      </trkpt>
      <trkpt lat="47.33432" lon="4.98923">
        <ele>225</ele>
        <time>2012-09-28T09:50:24Z</time>
      </trkpt>
      <trkpt lat="47.33408" lon="4.98947">
        <ele>231.185</ele>
        <time>2012-09-28T09:50:35Z</time>
      </trkpt>
      <trkpt lat="47.3341" lon="4.98958">
        <ele>223.853</ele>
        <time>2012-09-28T09:50:46Z</time>
      </trkpt>
      <trkpt lat="47.33392" lon="4.98983">
        <ele>225.741</ele>
        <time>2012-09-28T09:50:57Z</time>
      </trkpt>
      <trkpt lat="47.33375" lon="4.99008">
        <ele>221.176</ele>
        <time>2012-09-28T09:51:08Z</time>
      </trkpt>
      <trkpt lat="47.3337" lon="4.99017">
        <ele>217.952</ele>
        <time>2012-09-28T09:51:19Z</time>
      </trkpt>
      <trkpt lat="47.33362" lon="4.99037">
        <ele>224.305</ele>
        <time>2012-09-28T09:51:30Z</time>
      </trkpt>
      <trkpt lat="47.33337" lon="4.99062">
        <ele>234.397</ele>
        <time>2012-09-28T09:51:41Z</time>
      </trkpt>
      <trkpt lat="47.33327" lon="4.99083">
        <ele>236.811</ele>
        <time>2012-09-28T09:51:52Z</time>
      </trkpt>
      <trkpt lat="47.33308" lon="4.99112">
        <ele>251.894</ele>
        <time>2012-09-28T09:52:03Z</time>
      </trkpt>
      <trkpt lat="47.33313" lon="4.99122">
        <ele>250.797</ele>
        <time>2012-09-28T09:52:14Z</time>
      </trkpt>
      <trkpt lat="47.33317" lon="4.9913">
        <ele>245.283</ele>
        <time>2012-09-28T09:52:25Z</time>
      </trkpt>
      <trkpt lat="47.33312" lon="4.9915">
        <ele>235.888</ele>
        <time>2012-09-28T09:52:36Z</time>
      </trkpt>
      <trkpt lat="47.33307" lon="4.99157">
        <ele>229.124</ele>
        <time>2012-09-28T09:52:47Z</time>
      </trkpt>
      <trkpt lat="47.33302" lon="4.99167">
        <ele>225.728</ele>
        <time>2012-09-28T09:52:58Z</time>
      </trkpt>
      <trkpt lat="47.33293" lon="4.99175">
        <ele>228.977</ele>
        <time>2012-09-28T09:53:09Z</time>
      </trkpt>
      <trkpt lat="47.33273" lon="4.99193">
        <ele>234.207</ele>
        <time>2012-09-28T09:53:20Z</time>
      </trkpt>
      <trkpt lat="47.33255" lon="4.99218">
        <ele>243.075</ele>
        <time>2012-09-28T09:53:31Z</time>
      </trkpt>
      <trkpt lat="47.33255" lon="4.99218">
        <ele>243.075</ele>
        <time>2012-09-28T09:53:42Z</time>
      </trkpt>
      <trkpt lat="47.33255" lon="4.99218">
        <ele>243.075</ele>
        <time>2012-09-28T09:53:53Z</time>
      </trkpt>
      <trkpt lat="47.33255" lon="4.99218">
        <ele>243.075</ele>
        <time>2012-09-28T09:54:04Z</time>
      </trkpt>
      <trkpt lat="47.33252" lon="4.99222">
        <ele>249.002</ele>
        <time>2012-09-28T09:54:15Z</time>
      </trkpt>
      <trkpt lat="47.33252" lon="4.99222">
        <ele>249.002</ele>
        <time>2012-09-28T09:54:26Z</time>
      </trkpt>
      <trkpt lat="47.3325" lon="4.99225">
        <ele>249</ele>
        <time>2012-09-28T09:54:37Z</time>
      </trkpt>
      <trkpt lat="47.33245" lon="4.9923">
        <ele>248.804</ele>
        <time>2012-09-28T09:54:48Z</time>
      </trkpt>
      <trkpt lat="47.33247" lon="4.99232">
        <ele>245.991</ele>
        <time>2012-09-28T09:54:59Z</time>
      </trkpt>
      <trkpt lat="47.33247" lon="4.99237">
        <ele>242.104</ele>
        <time>2012-09-28T09:55:10Z</time>
      </trkpt>
      <trkpt lat="47.33243" lon="4.99248">
        <ele>238.338</ele>
        <time>2012-09-28T09:55:21Z</time>
      </trkpt>
      <trkpt lat="47.33247" lon="4.9926">
        <ele>235</ele>
        <time>2012-09-28T09:55:32Z</time>
      </trkpt>
      <trkpt lat="47.3324" lon="4.99272">
        <ele>232.203</ele>
        <time>2012-09-28T09:55:43Z</time>
      </trkpt>
      <trkpt lat="47.33235" lon="4.99287">
        <ele>228.034</ele>
        <time>2012-09-28T09:55:54Z</time>
      </trkpt>
      <trkpt lat="47.33232" lon="4.99305">
        <ele>221.735</ele>
        <time>2012-09-28T09:56:05Z</time>
      </trkpt>
      <trkpt lat="47.33228" lon="4.9932">
        <ele>221</ele>
        <time>2012-09-28T09:56:16Z</time>
      </trkpt>
      <trkpt lat="47.33233" lon="4.9933">
        <ele>206.795</ele>
        <time>2012-09-28T09:56:27Z</time>
      </trkpt>
      <trkpt lat="47.33232" lon="4.99343">
        <ele>199.895</ele>
        <time>2012-09-28T09:56:38Z</time>
      </trkpt>
      <trkpt lat="47.33235" lon="4.99343">
        <ele>197.652</ele>
        <time>2012-09-28T09:56:49Z</time>
      </trkpt>
      <trkpt lat="47.33235" lon="4.99347">
        <ele>197.206</ele>
        <time>2012-09-28T09:57:00Z</time>
      </trkpt>
      <trkpt lat="47.33235" lon="4.99347">
        <ele>197.206</ele>
        <time>2012-09-28T09:57:11Z</time>
      </trkpt>
      <trkpt lat="47.33228" lon="4.9935">
        <ele>199.827</ele>
        <time>2012-09-28T09:57:22Z</time>
      </trkpt>
      <trkpt lat="47.33228" lon="4.9935">
        <ele>199.827</ele>
        <time>2012-09-28T09:57:33Z</time>
      </trkpt>
    </trkseg>
  </trk>
</gpx>